EGBB Airport Information

Runway Information
Runway 15 Length 8527 ft width 151 ft
Elevation 305 ft Threshold 1069 ft Heading 148
Runway 33 Length 8527 ft Width 151 ft
Elevation 328 ft Threshold 987 ft Heading 328
Airport Frequencies
Type APP Name APP Frequency 118.05 MHZ
Type ATIS Name ATIS Frequency 136.02 MHZ
Type GND Name GND Frequency 121.8 MHZ
Type TWR Name TWR Frequency 118.3 MHZ
Airport Navaids
Type NDB Name Birmingham Frequency 406 KHZ
Airport Weather Information & NOTAM
ADDS - METARS form results

(1018 UTC 03 June 2020)
Data provider http://aviationweather.gov/metar/data/
 
METAR text: EGBB 030950Z 03010KT 9999 -RA BKN013 14/11 Q1010
Conditions at: EGBB (BIRMINGHAM AIRPO, GB) observed 0950 UTC 03 June 2020
Temperature: 14.0°C (57°F)
Dewpoint: 11.0°C (52°F) [RH = 82%]
Pressure (altimeter): 29.82 inches Hg (1010.0 mb)
Winds: from the NNE (30 degrees) at 12 MPH (10 knots; 5.1 m/s)
Visibility: 6 or more miles (10+ km)
Ceiling: 1300 feet AGL
Clouds: broken clouds at 1300 feet AGL
Weather: -RA  (light rain)

METAR text: EGBB 030920Z 03009KT 9999 FEW014 13/10 Q1010
Conditions at: EGBB (BIRMINGHAM AIRPO, GB) observed 0920 UTC 03 June 2020
Temperature: 13.0°C (55°F)
Dewpoint: 10.0°C (50°F) [RH = 82%]
Pressure (altimeter): 29.82 inches Hg (1010.0 mb)
Winds: from the NNE (30 degrees) at 10 MPH (9 knots; 4.6 m/s)
Visibility: 6 or more miles (10+ km)
Ceiling: at least 12,000 feet AGL
Clouds: few clouds at 1400 feet AGL
Weather: no significant weather observed at this time

Forecast for: EGBB (BIRMINGHAM AIRPO, GB)
Text: TAF EGBB 030458Z 0306/0406 35008KT 9999 SCT025
Forecast period: 0600 UTC 03 June 2020 to 0600 UTC 04 June 2020
Forecast type: FROM: standard forecast or significant change
Winds: from the N (350 degrees) at 9 MPH (8 knots; 4.1 m/s)
Visibility: 6 or more miles 10+ km)
Ceiling: at least 12,000 feet AGL
Clouds: scattered clouds at 2500 feet AGL
Weather: no significant weather forecast for this period
Text: TEMPO 0306/0403 6000 RA BKN014
Forecast period: 0600 UTC 03 June 2020 to 0300 UTC 04 June 2020
Forecast type: TEMPORARY: The following changes expected for less than half the time period
Visibility: 4 miles (6 km)
Ceiling: 1400 feet AGL
Clouds: broken clouds at 1400 feet AGL
Weather: RA  (moderate rain)
Text: PROB30
Forecast period: 1200 to 1800 UTC 03 June 2020
Forecast type: TEMPORARY: The following changes expected for less than half the time period
Visibility: 2.49 miles (4.01 km)
Ceiling: 800 feet AGL
Clouds: broken clouds at 800 feet AGL
Weather: +RA  (heavy rain)